Time;durP1;ratioP1;P1;durP2;ratioP2;P2;SDS_P1;SDS_P2;PMS_P1;PMS_P2;Temp;Humidity;BMP_temperature;BMP_pressure;BME280_temperature;BME280_humidity;BME280_pressure;Samples;Min_cycle;Max_cycle;Signal;HPM_P1;HPM_P2
2022/06/27 00:00:38;;;;;;;16.45;4.97;;;24.10;99.90;;;;;;5080805;28;20033;-77
2022/06/27 00:03:04;;;;;;;13.90;4.82;;;24.00;99.90;;;;;;5060003;28;20045;-81
2022/06/27 00:05:31;;;;;;;14.65;4.32;;;24.00;99.90;;;;;;5073781;28;20048;-78
2022/06/27 00:07:57;;;;;;;10.95;4.18;;;24.00;99.90;;;;;;5078247;28;20042;-76
2022/06/27 00:10:22;;;;;;;17.88;4.93;;;24.00;99.90;;;;;;5059027;28;20136;-78
2022/06/27 00:12:48;;;;;;;19.52;4.97;;;23.90;99.90;;;;;;5069193;28;20492;-76
2022/06/27 00:15:14;;;;;;;15.35;5.13;;;23.90;99.90;;;;;;5066698;28;20052;-76
2022/06/27 00:17:40;;;;;;;14.43;4.60;;;23.90;99.90;;;;;;5067607;28;20154;-76
2022/06/27 00:20:07;;;;;;;14.57;5.05;;;23.90;99.90;;;;;;5065743;28;20044;-82
2022/06/27 00:22:35;;;;;;;17.02;5.40;;;23.90;99.90;;;;;;5080053;28;20055;-77
2022/06/27 00:25:03;;;;;;;12.77;4.95;;;23.80;99.90;;;;;;5064058;28;20032;-79
2022/06/27 00:27:30;;;;;;;15.10;4.90;;;23.80;99.90;;;;;;5044618;28;20381;-79
2022/06/27 00:29:56;;;;;;;16.85;5.10;;;23.90;99.90;;;;;;5032922;28;20380;-76
2022/06/27 00:32:23;;;;;;;17.48;4.95;;;23.90;99.90;;;;;;5091356;28;20112;-81
2022/06/27 00:34:50;;;;;;;16.45;5.32;;;23.90;99.90;;;;;;5043628;28;20068;-77
2022/06/27 00:37:16;;;;;;;11.60;4.53;;;23.90;99.90;;;;;;5043424;28;20820;-77
2022/06/27 00:39:43;;;;;;;17.83;4.70;;;23.90;99.90;;;;;;5044668;28;20065;-79
2022/06/27 00:42:10;;;;;;;20.38;5.07;;;23.90;99.90;;;;;;5063090;28;20037;-77
2022/06/27 00:44:39;;;;;;;13.93;4.82;;;23.80;99.90;;;;;;5056141;28;20062;-78
2022/06/27 00:47:07;;;;;;;21.13;5.97;;;23.90;99.90;;;;;;5077301;28;20048;-75
2022/06/27 00:49:34;;;;;;;13.77;4.60;;;23.90;99.90;;;;;;5053135;28;20037;-75
2022/06/27 00:52:04;;;;;;;14.77;5.28;;;23.90;99.90;;;;;;5072809;28;20047;-75
2022/06/27 00:54:31;;;;;;;12.90;5.25;;;24.00;99.90;;;;;;5059929;28;20051;-75
2022/06/27 00:56:57;;;;;;;16.15;5.15;;;23.90;99.90;;;;;;5057894;28;20126;-79
2022/06/27 00:59:23;;;;;;;17.00;4.97;;;23.90;99.90;;;;;;5044972;28;20289;-77
2022/06/27 01:01:49;;;;;;;17.40;5.90;;;23.90;99.90;;;;;;5081370;28;20515;-77
2022/06/27 01:04:16;;;;;;;18.00;5.60;;;23.80;99.90;;;;;;5052129;28;20038;-79
2022/06/27 01:06:42;;;;;;;17.23;5.57;;;23.80;99.90;;;;;;5037540;28;20035;-78
2022/06/27 01:09:09;;;;;;;18.30;5.30;;;23.70;99.90;;;;;;5051040;28;20064;-80
2022/06/27 01:11:37;;;;;;;14.82;5.05;;;23.70;99.90;;;;;;5073403;28;20462;-78
2022/06/27 01:14:02;;;;;;;19.48;5.60;;;23.90;99.90;;;;;;5068606;28;20485;-78
2022/06/27 01:16:28;;;;;;;17.08;5.57;;;23.90;99.90;;;;;;5050021;28;20044;-76
2022/06/27 01:18:56;;;;;;;15.55;5.32;;;23.80;99.90;;;;;;5081573;28;20082;-77
2022/06/27 01:21:23;;;;;;;22.02;6.13;;;23.80;99.90;;;;;;5050110;28;20045;-78
2022/06/27 01:23:50;;;;;;;19.42;6.45;;;23.80;99.90;;;;;;5080803;28;20030;-79
2022/06/27 01:26:18;;;;;;;24.90;6.38;;;23.80;99.90;;;;;;5066878;28;20613;-78
2022/06/27 01:28:44;;;;;;;16.52;6.03;;;23.70;99.90;;;;;;5059412;28;20037;-79
2022/06/27 01:31:17;;;;;;;21.17;6.07;;;23.70;99.90;;;;;;5056714;28;20766;-77
2022/06/27 01:33:43;;;;;;;17.48;6.00;;;23.70;99.90;;;;;;5076796;28;20029;-78
2022/06/27 01:38:57;;;;;;;22.77;6.50;;;23.70;99.90;;;;;;5049488;28;20596;-79
2022/06/27 01:41:24;;;;;;;19.73;6.43;;;23.70;99.90;;;;;;5063161;28;20053;-78
2022/06/27 01:43:50;;;;;;;24.83;6.25;;;23.80;99.90;;;;;;5082160;28;20045;-78
2022/06/27 01:46:18;;;;;;;22.05;6.40;;;23.80;99.90;;;;;;5075168;28;20147;-80
2022/06/27 01:48:44;;;;;;;22.30;6.60;;;23.70;99.90;;;;;;5066472;28;20041;-78
2022/06/27 01:51:11;;;;;;;21.88;6.78;;;23.60;99.90;;;;;;5047461;28;20037;-78
2022/06/27 01:53:38;;;;;;;22.80;7.18;;;23.60;99.90;;;;;;5065559;28;20073;-77
2022/06/27 01:56:08;;;;;;;20.77;6.43;;;23.40;99.90;;;;;;5049947;28;20038;-78
2022/06/27 01:58:34;;;;;;;20.77;6.45;;;23.40;99.90;;;;;;5061634;28;20175;-77
2022/06/27 02:01:01;;;;;;;19.85;6.80;;;23.30;99.90;;;;;;5067565;28;20369;-78
2022/06/27 02:03:28;;;;;;;21.60;6.38;;;23.20;99.90;;;;;;5069464;28;20037;-78
2022/06/27 02:05:57;;;;;;;16.70;6.10;;;23.20;99.90;;;;;;5074449;28;20090;-81
2022/06/27 02:08:25;;;;;;;19.98;6.25;;;23.20;99.90;;;;;;5081669;28;20056;-81
2022/06/27 02:10:51;;;;;;;17.75;6.22;;;23.20;99.90;;;;;;5070712;28;20083;-78
2022/06/27 02:13:17;;;;;;;21.13;6.82;;;23.20;99.90;;;;;;5058053;28;20070;-81
2022/06/27 02:16:03;;;;;;;17.65;6.57;;;23.20;99.90;;;;;;5070238;28;20064;-78
2022/06/27 02:18:30;;;;;;;14.00;6.03;;;23.30;99.90;;;;;;5047471;28;20119;-80
2022/06/27 02:20:56;;;;;;;17.98;6.50;;;23.40;99.90;;;;;;5063085;28;20044;-77
2022/06/27 02:23:23;;;;;;;16.67;5.75;;;23.40;99.90;;;;;;5057269;28;20101;-80
2022/06/27 02:25:50;;;;;;;18.58;6.20;;;23.40;99.90;;;;;;5081939;28;20056;-79
2022/06/27 02:28:19;;;;;;;20.90;6.75;;;23.40;99.90;;;;;;5080772;28;20114;-77
2022/06/27 02:30:46;;;;;;;18.70;6.80;;;23.40;99.90;;;;;;5048931;28;20033;-77
2022/06/27 02:33:12;;;;;;;18.50;6.13;;;23.40;99.90;;;;;;5047488;28;20417;-77
2022/06/27 02:35:39;;;;;;;18.67;5.90;;;23.40;99.90;;;;;;5085963;28;20061;-77
2022/06/27 02:38:11;;;;;;;21.30;6.40;;;23.40;99.90;;;;;;5064473;28;20041;-77
2022/06/27 02:40:40;;;;;;;18.50;6.45;;;23.30;99.90;;;;;;5065399;28;20116;-78
2022/06/27 02:43:09;;;;;;;18.40;6.60;;;23.30;99.90;;;;;;5069116;28;20123;-76
2022/06/27 02:45:38;;;;;;;19.48;6.35;;;23.30;99.90;;;;;;5062961;28;20106;-77
2022/06/27 02:48:05;;;;;;;17.70;6.07;;;23.20;99.90;;;;;;5066484;28;20119;-79
2022/06/27 02:50:34;;;;;;;17.13;6.57;;;23.20;99.90;;;;;;5078257;28;20032;-77
2022/06/27 02:53:09;;;;;;;19.25;6.15;;;23.30;99.90;;;;;;5069123;28;20041;-77
2022/06/27 02:55:40;;;;;;;16.90;6.53;;;23.30;99.90;;;;;;5083008;28;20044;-82
2022/06/27 02:58:21;;;;;;;18.25;6.50;;;23.40;99.90;;;;;;5065315;28;20037;-76
2022/06/27 03:00:52;;;;;;;19.00;6.60;;;23.40;99.90;;;;;;5055455;28;20033;-78
2022/06/27 03:03:18;;;;;;;19.88;6.88;;;23.40;99.90;;;;;;5051003;28;20083;-77
2022/06/27 03:06:02;;;;;;;17.50;6.18;;;23.50;99.90;;;;;;5080293;28;20124;-80
2022/06/27 03:09:00;;;;;;;19.60;5.95;;;23.40;99.90;;;;;;5076466;28;20037;-77
2022/06/27 03:11:28;;;;;;;18.33;6.85;;;23.40;99.90;;;;;;5020659;28;20057;-82
2022/06/27 03:13:56;;;;;;;15.50;5.97;;;23.40;99.90;;;;;;5075201;28;20032;-78
2022/06/27 03:16:23;;;;;;;21.38;6.75;;;23.40;99.90;;;;;;5046766;28;20048;-78
2022/06/27 03:18:51;;;;;;;22.13;6.53;;;23.30;99.90;;;;;;5052342;28;20060;-81
2022/06/27 03:21:20;;;;;;;17.98;6.07;;;23.30;99.90;;;;;;5047377;28;20040;-76
2022/06/27 03:23:47;;;;;;;13.35;6.18;;;23.30;99.90;;;;;;5046673;28;20040;-76
2022/06/27 03:26:14;;;;;;;18.83;6.45;;;23.20;99.90;;;;;;5044101;28;20029;-77
2022/06/27 03:28:41;;;;;;;17.05;6.35;;;23.20;99.90;;;;;;5072554;28;20376;-77
2022/06/27 03:31:07;;;;;;;19.80;7.07;;;23.10;99.90;;;;;;5070795;28;20033;-76
2022/06/27 03:33:33;;;;;;;15.82;6.72;;;23.10;99.90;;;;;;5065209;28;20036;-76
2022/06/27 03:36:00;;;;;;;17.23;6.20;;;23.10;99.90;;;;;;5067637;28;20041;-80
2022/06/27 03:38:27;;;;;;;18.38;6.43;;;23.00;99.90;;;;;;5067492;28;20028;-77
2022/06/27 03:40:53;;;;;;;18.33;6.88;;;23.00;99.90;;;;;;5063944;28;20097;-78
2022/06/27 03:43:20;;;;;;;18.23;6.63;;;23.10;99.90;;;;;;5064489;28;20142;-76
2022/06/27 03:45:46;;;;;;;15.90;6.53;;;23.00;99.90;;;;;;5081898;28;20176;-77
2022/06/27 03:49:59;;;;;;;17.77;6.97;;;23.00;99.90;;;;;;5077186;28;20032;-79
2022/06/27 03:51:00;;;;;;;13.05;6.15;;;23.00;99.90;;;;;;5067074;28;20123;-79
2022/06/27 03:53:26;;;;;;;19.15;6.70;;;23.10;99.90;;;;;;5066902;28;20069;-77
2022/06/27 03:55:52;;;;;;;22.48;7.15;;;23.10;99.90;;;;;;5069722;28;20037;-78
2022/06/27 03:58:20;;;;;;;17.15;7.00;;;23.10;99.90;;;;;;5062507;28;20066;-77
2022/06/27 04:00:47;;;;;;;16.55;6.40;;;23.10;99.90;;;;;;5066139;28;20112;-79
2022/06/27 04:03:13;;;;;;;21.95;7.45;;;23.10;99.90;;;;;;5076625;28;20548;-76
2022/06/27 04:05:39;;;;;;;15.95;6.72;;;23.00;99.90;;;;;;5070537;28;20033;-78
2022/06/27 04:08:06;;;;;;;16.83;6.90;;;23.00;99.90;;;;;;5063596;28;20068;-75
2022/06/27 04:10:33;;;;;;;19.73;7.10;;;23.00;99.90;;;;;;5077503;28;20060;-79
2022/06/27 04:13:00;;;;;;;18.35;6.70;;;23.00;99.90;;;;;;5081006;28;20618;-76
2022/06/27 04:15:26;;;;;;;17.73;7.28;;;23.00;99.90;;;;;;5065362;28;20045;-78
2022/06/27 04:17:53;;;;;;;14.80;6.90;;;22.90;99.90;;;;;;5069271;28;20044;-76
2022/06/27 04:20:20;;;;;;;21.73;7.53;;;22.90;99.90;;;;;;5081999;28;20072;-77
2022/06/27 04:22:46;;;;;;;18.58;6.97;;;22.90;99.90;;;;;;5082104;28;20097;-77
2022/06/27 04:25:16;;;;;;;21.23;7.57;;;22.80;99.90;;;;;;5023497;28;20545;-77
2022/06/27 04:27:42;;;;;;;18.40;7.00;;;22.80;99.90;;;;;;5066298;28;20045;-81
2022/06/27 04:30:16;;;;;;;21.23;7.45;;;22.80;99.90;;;;;;5062469;28;20044;-77
2022/06/27 04:32:43;;;;;;;21.70;10.52;;;22.80;99.90;;;;;;5066716;28;20577;-77
2022/06/27 04:35:12;;;;;;;24.15;8.00;;;22.80;99.90;;;;;;5047190;28;20075;-77
2022/06/27 04:37:43;;;;;;;23.58;7.30;;;22.80;99.90;;;;;;5070529;28;20036;-79
2022/06/27 04:40:13;;;;;;;18.55;7.38;;;22.80;99.90;;;;;;5060772;28;20413;-76
2022/06/27 04:42:48;;;;;;;18.42;7.43;;;22.80;99.90;;;;;;5079698;28;20044;-76
2022/06/27 04:45:15;;;;;;;20.52;7.85;;;22.80;99.90;;;;;;5078715;28;20045;-78
2022/06/27 04:47:41;;;;;;;21.25;7.30;;;22.80;99.90;;;;;;5075956;28;20491;-75
2022/06/27 04:50:13;;;;;;;16.67;7.30;;;22.80;99.90;;;;;;5077867;28;20033;-80
2022/06/27 04:52:42;;;;;;;19.40;7.10;;;22.90;99.90;;;;;;5078799;28;20041;-76
2022/06/27 04:55:09;;;;;;;18.27;6.65;;;22.90;99.90;;;;;;5045760;28;20075;-76
2022/06/27 04:57:37;;;;;;;18.95;6.57;;;22.90;99.90;;;;;;5078965;28;20041;-78
2022/06/27 05:00:07;;;;;;;17.80;7.20;;;22.90;99.90;;;;;;5066485;28;20756;-83
2022/06/27 05:02:33;;;;;;;18.85;8.48;;;23.00;99.90;;;;;;5035931;28;20036;-78
2022/06/27 05:05:00;;;;;;;19.35;6.55;;;23.00;99.90;;;;;;5070097;28;20031;-76
2022/06/27 05:07:28;;;;;;;22.35;7.03;;;23.00;99.90;;;;;;5075901;28;20067;-78
2022/06/27 05:09:57;;;;;;;20.98;6.82;;;23.00;99.90;;;;;;5085562;28;20033;-79
2022/06/27 05:12:25;;;;;;;17.50;6.53;;;23.00;99.90;;;;;;5077827;28;20042;-76
2022/06/27 05:14:53;;;;;;;16.13;6.43;;;23.10;99.90;;;;;;5081024;28;20152;-76
2022/06/27 05:17:20;;;;;;;18.50;6.70;;;23.10;99.90;;;;;;5075288;28;20083;-75
2022/06/27 05:19:46;;;;;;;13.45;5.60;;;23.20;99.90;;;;;;5079961;28;20048;-79
2022/06/27 05:22:13;;;;;;;22.45;6.50;;;23.10;99.90;;;;;;5054689;28;20041;-77
2022/06/27 05:24:40;;;;;;;17.63;6.07;;;23.20;99.90;;;;;;5049016;28;20493;-76
2022/06/27 05:27:06;;;;;;;21.90;6.82;;;23.10;99.90;;;;;;5044986;28;20380;-75
2022/06/27 05:29:32;;;;;;;15.18;6.20;;;23.20;99.90;;;;;;5075563;28;20049;-75
2022/06/27 05:31:59;;;;;;;17.77;6.03;;;23.20;99.90;;;;;;5076990;28;20036;-78
2022/06/27 05:34:28;;;;;;;18.42;6.90;;;23.30;99.90;;;;;;5056110;28;20051;-77
2022/06/27 05:36:55;;;;;;;17.75;6.28;;;23.30;99.90;;;;;;5048325;28;20140;-78
2022/06/27 05:39:21;;;;;;;19.83;6.93;;;23.40;99.90;;;;;;5061308;28;20045;-80
2022/06/27 05:41:48;;;;;;;20.63;7.07;;;23.40;99.90;;;;;;5070842;28;20039;-77
2022/06/27 05:44:14;;;;;;;22.58;6.50;;;23.50;99.90;;;;;;5083800;28;20036;-79
2022/06/27 05:46:41;;;;;;;17.92;6.85;;;23.50;99.90;;;;;;5087791;28;20028;-80
2022/06/27 05:49:11;;;;;;;17.50;6.22;;;23.50;99.90;;;;;;5067691;28;20096;-80
2022/06/27 05:51:40;;;;;;;16.42;5.57;;;23.50;99.90;;;;;;5070668;28;20045;-78
2022/06/27 05:54:09;;;;;;;14.52;6.28;;;23.50;99.90;;;;;;5066292;28;20114;-76
2022/06/27 05:56:35;;;;;;;14.40;6.03;;;23.60;99.90;;;;;;5068377;28;20036;-79
2022/06/27 05:59:02;;;;;;;14.90;5.82;;;23.60;99.90;;;;;;5071105;28;20037;-77
2022/06/27 06:01:28;;;;;;;17.17;5.25;;;23.70;99.90;;;;;;5052846;28;20384;-78
2022/06/27 06:03:56;;;;;;;17.90;5.78;;;23.80;99.90;;;;;;5085096;28;20107;-77
2022/06/27 06:06:28;;;;;;;17.98;6.00;;;23.80;99.90;;;;;;5086557;28;20086;-78
2022/06/27 06:08:54;;;;;;;25.27;5.53;;;23.90;99.90;;;;;;5087802;28;20119;-77
2022/06/27 06:11:21;;;;;;;20.10;5.65;;;24.00;99.90;;;;;;5075023;28;20037;-80
2022/06/27 06:13:48;;;;;;;15.77;5.32;;;24.20;99.90;;;;;;5071298;28;20067;-78
2022/06/27 06:16:19;;;;;;;13.63;5.40;;;24.30;99.90;;;;;;5077028;28;20075;-82
2022/06/27 06:18:52;;;;;;;11.60;5.53;;;24.50;99.90;;;;;;5086678;28;20032;-78
2022/06/27 06:21:23;;;;;;;14.52;4.95;;;24.60;99.90;;;;;;5089856;28;20052;-79
2022/06/27 06:23:52;;;;;;;14.65;5.35;;;24.70;99.90;;;;;;5069877;28;20059;-80
2022/06/27 06:26:19;;;;;;;17.38;5.78;;;24.70;99.90;;;;;;5071797;28;20035;-82
2022/06/27 06:28:48;;;;;;;15.65;5.13;;;24.90;99.90;;;;;;5084297;28;20033;-77
2022/06/27 06:31:21;;;;;;;14.73;5.43;;;25.00;99.90;;;;;;5082438;28;20571;-81
2022/06/27 06:33:50;;;;;;;18.63;5.32;;;25.00;99.90;;;;;;5087221;28;20040;-79
2022/06/27 06:36:21;;;;;;;17.38;5.05;;;25.00;99.90;;;;;;5084253;28;20055;-77
2022/06/27 06:38:47;;;;;;;16.77;5.00;;;25.10;99.90;;;;;;5086290;28;20063;-77
2022/06/27 06:41:14;;;;;;;12.60;4.30;;;25.00;99.90;;;;;;5065800;28;20054;-76
2022/06/27 06:43:41;;;;;;;21.35;4.88;;;25.00;99.90;;;;;;5085091;28;20044;-77
2022/06/27 06:46:09;;;;;;;13.23;4.07;;;25.00;99.90;;;;;;5083150;28;20506;-77
2022/06/27 06:48:37;;;;;;;15.15;5.25;;;25.00;99.90;;;;;;5064421;28;20088;-76
2022/06/27 06:51:05;;;;;;;17.08;4.93;;;25.20;99.90;;;;;;5084741;28;20052;-78
2022/06/27 06:53:31;;;;;;;16.08;4.78;;;25.20;99.90;;;;;;5068794;28;20407;-81
2022/06/27 06:55:58;;;;;;;15.65;4.38;;;25.30;99.90;;;;;;5101740;28;20071;-78
2022/06/27 06:58:25;;;;;;;22.63;4.47;;;25.20;99.90;;;;;;5078167;28;20067;-83
2022/06/27 07:00:52;;;;;;;13.60;4.70;;;25.40;99.90;;;;;;5057852;28;20044;-78
2022/06/27 07:03:20;;;;;;;13.98;4.80;;;25.50;99.90;;;;;;5051001;28;20377;-81
2022/06/27 07:05:49;;;;;;;20.48;4.80;;;25.60;99.90;;;;;;5060720;28;20043;-77
2022/06/27 07:08:16;;;;;;;15.90;4.20;;;25.70;99.90;;;;;;5060592;28;20048;-79
2022/06/27 07:10:43;;;;;;;11.43;3.70;;;25.80;99.90;;;;;;5083901;28;20432;-78
2022/06/27 07:13:11;;;;;;;12.98;3.92;;;25.80;99.90;;;;;;5047716;28;20124;-79
2022/06/27 07:15:37;;;;;;;13.68;3.72;;;25.70;99.90;;;;;;5062132;28;20037;-78
2022/06/27 07:18:04;;;;;;;16.90;4.50;;;25.60;99.90;;;;;;5049953;28;20489;-79
2022/06/27 07:20:32;;;;;;;14.02;4.20;;;25.80;99.90;;;;;;5079837;28;20033;-77
2022/06/27 07:22:59;;;;;;;15.07;4.63;;;25.80;99.90;;;;;;5065545;28;20040;-80
2022/06/27 07:25:26;;;;;;;17.08;4.57;;;25.90;99.90;;;;;;5056595;28;20075;-77
2022/06/27 07:27:53;;;;;;;16.08;4.30;;;26.10;99.90;;;;;;5060623;28;20032;-78
2022/06/27 07:30:20;;;;;;;16.15;4.18;;;26.30;99.90;;;;;;5082785;28;20037;-80
2022/06/27 07:32:46;;;;;;;12.93;4.15;;;26.30;99.90;;;;;;5067849;28;20036;-77
2022/06/27 07:35:14;;;;;;;13.55;4.28;;;26.20;99.90;;;;;;5064965;28;20535;-83
2022/06/27 07:37:51;;;;;;;18.33;4.57;;;26.40;99.90;;;;;;5060536;28;20033;-78
2022/06/27 07:40:20;;;;;;;19.52;4.72;;;26.20;99.90;;;;;;5063449;28;20037;-78
2022/06/27 07:42:47;;;;;;;18.20;4.05;;;26.10;99.90;;;;;;5076898;28;20037;-77
2022/06/27 07:45:14;;;;;;;18.30;4.30;;;26.40;99.90;;;;;;5063237;28;20036;-82
2022/06/27 07:47:46;;;;;;;16.20;4.57;;;26.60;99.90;;;;;;5055524;28;20036;-77
2022/06/27 07:50:36;;;;;;;;;;;26.80;99.90;;;;;;5052855;28;20052;-82
2022/06/27 07:53:14;;;;;;;15.50;4.03;;;26.90;99.90;;;;;;5056518;28;19942;-80
2022/06/27 07:55:50;;;;;;;15.55;4.85;;;26.80;99.90;;;;;;5070117;28;20059;-80
2022/06/27 07:58:18;;;;;;;15.82;4.35;;;26.70;99.90;;;;;;5083003;28;20037;-77
2022/06/27 08:00:50;;;;;;;16.23;4.47;;;26.50;99.90;;;;;;5039740;28;20036;-78
2022/06/27 08:06:08;;;;;;;15.15;4.10;;;25.80;99.90;;;;;;5065970;28;20051;-79
2022/06/27 08:08:36;;;;;;;19.52;5.07;;;25.60;99.90;;;;;;5073027;28;20100;-78
2022/06/27 08:11:03;;;;;;;17.55;4.60;;;25.40;99.90;;;;;;5079861;28;20059;-79
2022/06/27 08:13:31;;;;;;;16.70;4.63;;;25.20;99.90;;;;;;5056791;28;20162;-77
2022/06/27 08:16:01;;;;;;;12.48;4.88;;;25.30;99.90;;;;;;5055119;28;20105;-77
2022/06/27 08:18:30;;;;;;;15.98;5.20;;;25.00;99.90;;;;;;5093242;28;20097;-77
2022/06/27 08:20:57;;;;;;;18.15;5.30;;;25.10;99.90;;;;;;5045726;28;20050;-78
2022/06/27 08:23:23;;;;;;;17.90;5.53;;;25.20;99.90;;;;;;5079427;28;20124;-81
2022/06/27 08:25:49;;;;;;;22.20;5.53;;;25.20;99.90;;;;;;5079039;28;20462;-78
2022/06/27 08:28:17;;;;;;;16.05;6.00;;;25.10;99.90;;;;;;5078096;28;20045;-78
2022/06/27 08:30:44;;;;;;;14.60;5.45;;;25.10;99.90;;;;;;5064142;28;20065;-78
2022/06/27 08:33:12;;;;;;;15.07;5.18;;;25.10;99.90;;;;;;5080302;28;20060;-81
2022/06/27 08:35:39;;;;;;;17.25;5.50;;;25.10;99.90;;;;;;5058445;28;20049;-77
2022/06/27 08:38:06;;;;;;;20.65;5.88;;;25.00;99.90;;;;;;5075529;28;20487;-78
2022/06/27 08:40:32;;;;;;;22.10;6.15;;;25.20;99.90;;;;;;5083123;28;20064;-78
2022/06/27 08:42:58;;;;;;;22.55;5.90;;;25.30;99.90;;;;;;5053138;28;20044;-79
2022/06/27 08:45:28;;;;;;;18.88;5.40;;;25.30;99.90;;;;;;5057274;28;20121;-78
2022/06/27 08:48:04;;;;;;;14.18;5.55;;;25.40;99.90;;;;;;5038752;28;20063;-77
2022/06/27 08:50:36;;;;;;;20.63;5.68;;;25.50;99.90;;;;;;5073251;28;20102;-77
2022/06/27 08:53:04;;;;;;;20.17;5.70;;;25.50;99.90;;;;;;5042742;28;20053;-80
2022/06/27 08:55:34;;;;;;;19.48;5.28;;;25.60;99.90;;;;;;5064370;28;20052;-76
2022/06/27 08:58:04;;;;;;;18.40;5.18;;;25.90;99.90;;;;;;5055196;28;20087;-79
2022/06/27 09:00:32;;;;;;;19.73;5.63;;;26.10;99.90;;;;;;5075860;28;20040;-81
2022/06/27 09:02:59;;;;;;;18.65;5.28;;;26.20;99.90;;;;;;5086226;28;20040;-78
2022/06/27 09:05:29;;;;;;;18.20;4.95;;;26.40;99.90;;;;;;5057826;28;20024;-77
2022/06/27 09:08:01;;;;;;;16.95;5.05;;;26.30;99.90;;;;;;5061972;28;20040;-76
2022/06/27 09:10:44;;;;;;;21.02;5.60;;;26.40;99.90;;;;;;5059133;28;20044;-78
2022/06/27 09:13:13;;;;;;;20.08;6.40;;;26.10;99.90;;;;;;5078417;28;20414;-77
2022/06/27 09:15:59;;;;;;;16.38;4.65;;;26.20;99.90;;;;;;5065494;28;20041;-77
2022/06/27 09:18:30;;;;;;;18.98;5.13;;;26.40;99.90;;;;;;5065364;28;20150;-79
2022/06/27 09:21:15;;;;;;;23.80;5.32;;;26.30;99.90;;;;;;5079496;28;20507;-79
2022/06/27 09:24:09;;;;;;;18.27;5.10;;;26.20;99.90;;;;;;5059755;28;20051;-78
2022/06/27 09:26:35;;;;;;;16.17;4.82;;;26.10;99.90;;;;;;5046461;28;20455;-82
2022/06/27 09:29:06;;;;;;;14.18;5.10;;;26.20;99.90;;;;;;5065295;28;20037;-78
2022/06/27 09:31:33;;;;;;;12.48;4.78;;;25.90;99.90;;;;;;5043323;28;20525;-79
2022/06/27 09:34:08;;;;;;;17.83;4.60;;;25.90;99.90;;;;;;5055492;28;20036;-78
2022/06/27 09:36:38;;;;;;;20.65;5.22;;;25.80;99.90;;;;;;5063087;28;20045;-78
2022/06/27 09:39:06;;;;;;;19.85;4.82;;;26.00;99.90;;;;;;5072088;28;20606;-81
2022/06/27 09:41:35;;;;;;;14.38;4.75;;;26.10;99.90;;;;;;5076940;28;20382;-77
2022/06/27 09:44:12;;;;;;;23.65;5.63;;;26.10;99.90;;;;;;5061262;28;20930;-77
2022/06/27 09:46:44;;;;;;;17.25;5.45;;;26.00;99.90;;;;;;5070018;28;20111;-77
2022/06/27 09:49:14;;;;;;;17.45;4.68;;;26.00;99.90;;;;;;5077460;28;20040;-78
2022/06/27 09:51:42;;;;;;;20.40;5.20;;;26.30;99.90;;;;;;5081803;28;20047;-79
2022/06/27 09:54:11;;;;;;;21.60;5.25;;;26.60;99.90;;;;;;5084472;28;20063;-80
2022/06/27 09:56:39;;;;;;;13.18;4.78;;;26.70;99.90;;;;;;5069437;28;20147;-81
2022/06/27 09:59:11;;;;;;;16.65;5.07;;;26.80;99.90;;;;;;5068964;28;20052;-79
2022/06/27 10:01:41;;;;;;;14.82;5.22;;;26.90;99.90;;;;;;5065749;28;20135;-78
2022/06/27 10:04:10;;;;;;;19.23;5.20;;;27.10;99.90;;;;;;5066325;28;20045;-79
2022/06/27 10:06:41;;;;;;;15.95;5.10;;;27.40;99.90;;;;;;5064224;28;20051;-79
2022/06/27 10:09:09;;;;;;;21.05;5.32;;;27.60;99.90;;;;;;5068662;28;20036;-77
2022/06/27 10:11:37;;;;;;;16.67;4.38;;;27.90;99.90;;;;;;5091106;28;20040;-79
2022/06/27 10:14:17;;;;;;;15.48;5.13;;;28.30;99.90;;;;;;5086427;28;20048;-76
2022/06/27 10:16:58;;;;;;;19.00;5.25;;;28.50;99.90;;;;;;5089998;28;20063;-80
2022/06/27 10:19:29;;;;;;;23.40;5.07;;;28.60;99.90;;;;;;5072128;28;20471;-80
2022/06/27 10:21:56;;;;;;;18.58;5.82;;;28.80;99.90;;;;;;5086945;28;20031;-80
2022/06/27 10:24:26;;;;;;;17.65;5.55;;;28.60;99.90;;;;;;5085171;28;20060;-81
2022/06/27 10:26:57;;;;;;;18.88;4.88;;;28.10;99.90;;;;;;5088047;28;20111;-81
2022/06/27 10:29:34;;;;;;;17.15;5.70;;;27.70;99.90;;;;;;5088457;28;20068;-75
2022/06/27 10:32:02;;;;;;;16.80;5.22;;;27.10;99.90;;;;;;5065762;28;20062;-76
2022/06/27 10:34:40;;;;;;;15.57;5.55;;;26.90;99.90;;;;;;5072365;28;20591;-81
2022/06/27 10:37:28;;;;;;;13.88;5.00;;;27.10;99.90;;;;;;5083735;28;20041;-76
2022/06/27 10:40:20;;;;;;;18.70;5.35;;;26.90;99.90;;;;;;5083708;28;20051;-77
2022/06/27 10:42:50;;;;;;;;;;;27.00;99.90;;;;;;5061768;28;20555;-78
2022/06/27 10:45:26;;;;;;;18.35;5.53;;;27.20;99.90;;;;;;5071524;28;19912;-79
2022/06/27 10:47:57;;;;;;;21.60;5.80;;;28.00;99.90;;;;;;5078080;28;20324;-76
2022/06/27 10:50:26;;;;;;;14.63;5.00;;;28.10;99.90;;;;;;5058953;28;20040;-82
2022/06/27 10:53:16;;;;;;;17.10;5.13;;;28.00;99.90;;;;;;5084118;28;20443;-79
2022/06/27 10:55:43;;;;;;;17.38;4.43;;;28.00;99.90;;;;;;5074773;28;20040;-79
2022/06/27 10:58:24;;;;;;;13.95;4.63;;;28.00;99.90;;;;;;5061888;28;20076;-79
2022/06/27 11:00:50;;;;;;;15.82;5.45;;;28.10;99.90;;;;;;5057477;28;20056;-76
2022/06/27 11:03:23;;;;;;;11.80;4.68;;;28.30;99.90;;;;;;5046276;28;20084;-80
2022/06/27 11:06:03;;;;;;;12.02;3.97;;;28.50;99.90;;;;;;5060157;28;20131;-81
2022/06/27 11:08:31;;;;;;;15.20;4.82;;;28.80;99.90;;;;;;5055702;28;20774;-82
2022/06/27 11:10:58;;;;;;;17.08;4.68;;;29.30;99.90;;;;;;5045381;28;20040;-78
2022/06/27 11:13:54;;;;;;;13.05;4.72;;;29.80;99.90;;;;;;5056892;28;20055;-76
2022/06/27 11:16:20;;;;;;;13.65;5.05;;;29.90;99.90;;;;;;5048465;28;20051;-76
2022/06/27 11:18:49;;;;;;;15.13;4.40;;;29.50;99.90;;;;;;5061550;28;20040;-75
2022/06/27 11:21:43;;;;;;;11.50;3.92;;;29.30;99.90;;;;;;5058465;28;20036;-78
2022/06/27 11:24:14;;;;;;;13.70;6.55;;;29.40;99.90;;;;;;5061934;28;20104;-76
2022/06/27 11:26:49;;;;;;;17.02;4.60;;;29.00;99.90;;;;;;5058097;28;20105;-78
2022/06/27 11:32:13;;;;;;;12.35;4.80;;;28.80;99.90;;;;;;5055854;28;20120;-78
2022/06/27 11:34:49;;;;;;;13.15;4.35;;;29.00;99.90;;;;;;5068100;28;20040;-75
2022/06/27 11:37:17;;;;;;;17.88;4.20;;;28.90;99.90;;;;;;5067946;28;20089;-78
2022/06/27 11:40:07;;;;;;;11.82;3.85;;;29.10;99.90;;;;;;5071905;28;20040;-79
2022/06/27 11:42:36;;;;;;;13.73;4.30;;;29.40;99.90;;;;;;5057974;28;20043;-77
2022/06/27 11:45:05;;;;;;;10.23;3.97;;;29.10;99.90;;;;;;5054904;28;20380;-76
2022/06/27 11:47:40;;;;;;;9.60;3.85;;;28.40;99.90;;;;;;5056565;28;20048;-75
2022/06/27 11:50:07;;;;;;;12.75;3.83;;;28.40;99.90;;;;;;5053329;28;20062;-76
2022/06/27 11:52:37;;;;;;;15.30;5.03;;;28.20;99.90;;;;;;5058446;28;20515;-78
2022/06/27 11:55:25;;;;;;;11.30;4.10;;;28.00;99.90;;;;;;5071223;28;20040;-79
2022/06/27 11:57:57;;;;;;;12.57;4.10;;;28.00;99.90;;;;;;5077326;28;20163;-77
2022/06/27 12:00:31;;;;;;;12.70;4.22;;;28.00;99.90;;;;;;5060766;28;20542;-81
2022/06/27 12:03:06;;;;;;;12.63;4.80;;;28.20;99.90;;;;;;5066660;28;20643;-81
2022/06/27 12:05:33;;;;;;;18.90;4.88;;;28.40;99.90;;;;;;5055549;28;20142;-78
2022/06/27 12:08:06;;;;;;;12.75;4.80;;;28.60;99.90;;;;;;5054394;28;20040;-76
2022/06/27 12:10:35;;;;;;;9.52;3.85;;;28.60;99.90;;;;;;5059038;28;20059;-76
2022/06/27 12:13:12;;;;;;;11.27;4.28;;;29.00;99.90;;;;;;5061522;28;20044;-76
2022/06/27 12:15:40;;;;;;;13.45;4.15;;;28.90;99.90;;;;;;5061108;28;20040;-77
2022/06/27 12:18:09;;;;;;;13.23;3.67;;;29.00;99.90;;;;;;5059055;28;20076;-81
2022/06/27 12:20:36;;;;;;;13.68;3.65;;;29.90;99.90;;;;;;5057910;28;20043;-81
2022/06/27 12:23:02;;;;;;;15.63;4.15;;;30.00;99.90;;;;;;5056837;28;20140;-77
2022/06/27 12:25:29;;;;;;;12.85;3.50;;;30.40;99.90;;;;;;5056740;28;20041;-77
2022/06/27 12:27:55;;;;;;;14.35;4.00;;;30.30;99.90;;;;;;5076644;28;20044;-77
2022/06/27 12:30:21;;;;;;;11.73;3.63;;;30.80;99.90;;;;;;5060180;28;20047;-75
2022/06/27 12:32:48;;;;;;;11.35;3.90;;;30.90;99.90;;;;;;5075772;28;20118;-81
2022/06/27 12:35:14;;;;;;;12.00;3.50;;;31.10;99.90;;;;;;5061070;28;20044;-77
2022/06/27 12:37:41;;;;;;;12.00;3.60;;;31.30;99.90;;;;;;5079726;28;20043;-78
2022/06/27 12:40:10;;;;;;;12.23;3.35;;;31.30;99.90;;;;;;5059716;28;20115;-79
2022/06/27 12:42:39;;;;;;;9.35;3.17;;;31.70;99.90;;;;;;5062524;28;20059;-79
2022/06/27 12:45:06;;;;;;;8.07;3.13;;;30.80;99.90;;;;;;5056183;28;20056;-80
2022/06/27 12:47:32;;;;;;;14.57;3.22;;;30.70;99.90;;;;;;5061817;28;20052;-77
2022/06/27 12:49:58;;;;;;;10.32;3.08;;;31.00;99.90;;;;;;5059166;28;20174;-77
2022/06/27 12:52:24;;;;;;;13.77;4.07;;;31.20;99.90;;;;;;5061922;28;20492;-79
2022/06/27 12:54:50;;;;;;;17.08;3.30;;;31.80;99.90;;;;;;5078663;28;20041;-82
2022/06/27 12:57:16;;;;;;;8.50;3.25;;;31.80;99.90;;;;;;5061790;28;20024;-78